Amy B — WDI7307 — position and weather

sailwx.info

Track history (hours):
 
Tides and Currents Weather Stations Pressure Air Temp Water Temp Dewpoint Dewpoint Depression Visibility Wind Speed Wind Dir Waves Ship Positions

Amy B

Owner: WCP, Inc, Wilsonville, OR. More information available from US FCC via Universal Licensing System and Coast Guard Vessel Documentation Center.

Last reported at 2017-Oct-17 04:00 UTC. Time now 2017-Oct-17 04:20 UTC.
Position N 45°48' W 122°51'.

Length 21 m; draft 2.5 m.

Type: Towing. MMSI: 367727410.

Date/timePositionNaut miles runAvg speedWind from/ knotsBaromVisibWave heightAir tempDewpointWater temp
2017-Oct-17 04:00N 45°48' W 122°51'0 0.0
2017-Oct-17 03:12N 45°48' W 122°51'0 0.0
2017-Oct-17 02:56N 45°48' W 122°51'0 0.0
2017-Oct-17 02:30N 45°48' W 122°51'0 0.1
2017-Oct-17 01:57N 45°48' W 122°51'1 2.7
2017-Oct-17 01:30N 45°48' W 122°49'3 5.7
2017-Oct-17 01:00N 45°51' W 122°48'3 5.1
2017-Oct-17 00:30N 45°48' W 122°47'4 7.7
2017-Oct-17 00:00N 45°45' W 122°46'4 7.2
2017-Oct-16 23:30N 45°41' W 122°46'3 6.7
2017-Oct-16 23:00N 45°38' W 122°44'0 0.6
2017-Oct-16 22:30N 45°39' W 122°44'0 0.0
2017-Oct-16 21:57N 45°39' W 122°44'0 0.0
2017-Oct-16 21:27N 45°39' W 122°44'0 0.0
2017-Oct-16 21:00N 45°39' W 122°44'0 0.0
2017-Oct-16 20:30N 45°39' W 122°44'0 0.0
2017-Oct-16 20:00N 45°39' W 122°44'0 0.0
2017-Oct-16 19:27N 45°39' W 122°44'0 0.1
2017-Oct-16 18:57N 45°39' W 122°44'2 4.1
2017-Oct-16 18:30N 45°40' W 122°46'2 4.9
2017-Oct-16 18:00N 45°42' W 122°46'2 4.8
2017-Oct-16 17:30N 45°44' W 122°46'2 4.6
2017-Oct-16 17:00N 45°47' W 122°46'2 4.6
2017-Oct-16 16:30N 45°49' W 122°48'2 4.3
2017-Oct-16 16:01N 45°51' W 122°47'2 3.3
2017-Oct-16 15:31N 45°53' W 122°48'3 5.7
2017-Oct-16 15:00N 45°50' W 122°49'2 3.0
2017-Oct-16 14:30N 45°48' W 122°50'1 0.9
2017-Oct-16 13:27N 45°48' W 122°51'0 0.3
2017-Oct-16 12:58N 45°48' W 122°51'0 0.1
2017-Oct-16 12:30N 45°48' W 122°51'0 0.0
2017-Oct-16 05:22N 45°48' W 122°51'0 0.0
2017-Oct-16 04:53N 45°48' W 122°51'1 2.7
2017-Oct-16 04:30N 45°48' W 122°50'0 0.3
2017-Oct-16 04:00N 45°48' W 122°49'3 5.4
2017-Oct-16 03:31N 45°51' W 122°48'1 1.3
2017-Oct-16 03:00N 45°51' W 122°47'4 8.7
2017-Oct-16 02:30N 45°47' W 122°47'4 8.7
2017-Oct-16 02:00N 45°43' W 122°46'4 7.9
2017-Oct-16 01:30N 45°39' W 122°44'4 7.6
2017-Oct-16 01:00N 45°37' W 122°40'3 6.4
2017-Oct-16 00:30N 45°36' W 122°35'5 8.2
2017-Oct-15 23:56N 45°35' W 122°29'2 1.5
2017-Oct-15 22:40N 45°34' W 122°27'0 0.0
2017-Oct-15 22:13N 45°34' W 122°27'0 0.0
2017-Oct-15 21:58N 45°34' W 122°27'0 0.0
2017-Oct-15 20:46N 45°34' W 122°27'0 0.0
2017-Oct-15 20:22N 45°34' W 122°27'0 0.0
2017-Oct-15 19:19N 45°34' W 122°27'0 0.0
2017-Oct-15 18:58N 45°34' W 122°27'1 1.3
2017-Oct-15 18:28N 45°34' W 122°27'2 3.9
2017-Oct-15 17:52N 45°35' W 122°30'2 3.9
2017-Oct-15 17:27N 45°36' W 122°33'2 3.9
2017-Oct-15 17:00N 45°36' W 122°35'2 4.2
2017-Oct-15 16:31N 45°36' W 122°38'2 4.2
2017-Oct-15 16:00N 45°37' W 122°41'2 4.6
2017-Oct-15 15:30N 45°39' W 122°43'2 4.5
2017-Oct-15 15:00N 45°40' W 122°46'5 4.3
2017-Oct-15 13:54N 45°45' W 122°46'2 4.5
2017-Oct-15 13:30N 45°46' W 122°46'2 4.4
2017-Oct-15 13:00N 45°48' W 122°48'2 4.2
2017-Oct-15 12:30N 45°50' W 122°47'2 4.1
2017-Oct-15 12:01N 45°52' W 122°48'2 3.8
2017-Oct-15 11:30N 45°51' W 122°48'3 4.9
2017-Oct-15 10:57N 45°48' W 122°50'1 1.8
2017-Oct-15 10:30N 45°48' W 122°51'0 0.1
2017-Oct-15 10:01N 45°48' W 122°51'0 0.1
2017-Oct-15 09:29N 45°48' W 122°51'0 0.0
2017-Oct-15 08:54N 45°48' W 122°51'0 0.0
2017-Oct-15 08:30N 45°48' W 122°51'0 0.0
2017-Oct-15 07:57N 45°48' W 122°51'0 0.0
2017-Oct-15 07:30N 45°48' W 122°51'0 0.0
2017-Oct-15 06:54N 45°48' W 122°51'0 0.1
2017-Oct-15 06:30N 45°48' W 122°51'1 1.8
2017-Oct-15 06:00N 45°48' W 122°50'0 0.7
2017-Oct-15 05:29N 45°48' W 122°49'2 3.3
2017-Oct-15 05:00N 45°50' W 122°49'3 5.8
2017-Oct-15 04:30N 45°53' W 122°48'4 8.1
2017-Oct-15 04:00N 45°49' W 122°47'4 8.3
2017-Oct-15 03:30N 45°45' W 122°46'4 8.5
2017-Oct-15 03:00N 45°40' W 122°46'4 8.0
2017-Oct-15 02:30N 45°38' W 122°42'4 8.3
2017-Oct-15 02:00N 45°36' W 122°36'4 8.6
2017-Oct-15 01:30N 45°35' W 122°30'3 4.6
2017-Oct-15 00:52N 45°34' W 122°27'0 0.0
2017-Oct-14 23:40N 45°34' W 122°27'0 0.0
2017-Oct-14 23:28N 45°34' W 122°27'0 0.0
2017-Oct-14 22:46N 45°34' W 122°27'0 0.0
2017-Oct-14 22:22N 45°34' W 122°27'0 0.0
2017-Oct-14 21:01N 45°34' W 122°27'0 0.0
2017-Oct-14 20:49N 45°34' W 122°27'0 0.0
2017-Oct-14 20:01N 45°34' W 122°27'0 0.2
2017-Oct-14 19:58N 45°34' W 122°27'1 1.3
2017-Oct-14 19:29N 45°34' W 122°27'2 4.1
2017-Oct-14 19:00N 45°35' W 122°30'2 4.3
2017-Oct-14 18:30N 45°36' W 122°33'2 3.9
2017-Oct-14 18:00N 45°36' W 122°36'2 4.2
2017-Oct-14 17:30N 45°37' W 122°38'2 4.0
2017-Oct-14 17:00N 45°37' W 122°41'2 3.9
2017-Oct-14 16:30N 45°38' W 122°43'2 4.6
2017-Oct-14 16:00N 45°40' W 122°46'4 7.3
2017-Oct-14 15:30N 45°44' W 122°46'1 1.5
2017-Oct-14 15:01N 45°44' W 122°46'2 4.7
2017-Oct-14 14:30N 45°47' W 122°46'2 4.6
2017-Oct-14 14:00N 45°49' W 122°48'2 4.2
2017-Oct-14 13:31N 45°51' W 122°47'2 3.8
2017-Oct-14 13:00N 45°53' W 122°48'2 4.4
2017-Oct-14 12:30N 45°50' W 122°48'2 4.7
2017-Oct-14 12:00N 45°48' W 122°50'0 1.0
2017-Oct-14 11:30N 45°48' W 122°50'1 1.0
2017-Oct-14 10:59N 45°48' W 122°51'0 0.1
2017-Oct-14 10:28N 45°48' W 122°51'0 0.0
2017-Oct-14 09:52N 45°48' W 122°51'0 0.0
2017-Oct-14 09:25N 45°48' W 122°51'0 0.0
2017-Oct-14 08:55N 45°48' W 122°51'0 0.0
2017-Oct-14 08:28N 45°48' W 122°51'0 0.0
2017-Oct-14 07:58N 45°48' W 122°51'0 0.1
2017-Oct-14 07:16N 45°48' W 122°51'0 0.0
2017-Oct-14 07:01N 45°48' W 122°51'2 3.0
2017-Oct-14 06:30N 45°49' W 122°50'3 5.8
2017-Oct-14 06:00N 45°51' W 122°47'3 6.9
2017-Oct-14 05:30N 45°48' W 122°47'4 7.2
2017-Oct-14 05:00N 45°44' W 122°46'4 7.8
2017-Oct-14 04:27N 45°40' W 122°46'2 4.9
2017-Oct-14 03:58N 45°39' W 122°44'0 0.0
2017-Oct-14 03:10N 45°39' W 122°44'0 0.0
2017-Oct-14 02:58N 45°39' W 122°44'0 0.0
2017-Oct-14 02:25N 45°39' W 122°44'0 0.0
2017-Oct-14 01:52N 45°39' W 122°44'0 0.0
2017-Oct-14 01:25N 45°39' W 122°44'0 0.0
2017-Oct-14 00:52N 45°39' W 122°44'0 0.0
2017-Oct-14 00:25N 45°39' W 122°44'0 0.0
2017-Oct-13 23:58N 45°39' W 122°44'0 0.0
2017-Oct-13 23:28N 45°39' W 122°44'1 2.5
2017-Oct-13 23:00N 45°39' W 122°45'3 5.2
2017-Oct-13 22:30N 45°42' W 122°46'3 5.2
2017-Oct-13 22:00N 45°44' W 122°46'4 5.6
2017-Oct-13 21:15N 45°48' W 122°47'1 5.5
2017-Oct-13 21:00N 45°50' W 122°48'2 3.4
2017-Oct-13 20:30N 45°51' W 122°48'3 5.6
2017-Oct-13 20:00N 45°49' W 122°50'1 1.8
2017-Oct-13 19:23N 45°48' W 122°50'0 0.5
2017-Oct-13 18:56N 45°48' W 122°51'0 0.0
2017-Oct-13 18:20N 45°48' W 122°51'0 0.0
2017-Oct-13 17:59N 45°48' W 122°51'0 0.0
2017-Oct-13 17:13N 45°48' W 122°51'0 0.0
2017-Oct-13 16:56N 45°48' W 122°51'0 0.1
2017-Oct-13 16:26N 45°48' W 122°51'0 0.7
2017-Oct-13 16:00N 45°48' W 122°50'1 2.1
2017-Oct-13 15:30N 45°49' W 122°50'2 4.1
2017-Oct-13 15:00N 45°51' W 122°48'2 3.8
2017-Oct-13 14:30N 45°52' W 122°48'3 5.0
2017-Oct-13 13:51N 45°49' W 122°48'3 8.8
2017-Oct-13 13:30N 45°46' W 122°46'6 8.6
2017-Oct-13 12:50N 45°40' W 122°46'2 6.2
2017-Oct-13 12:31N 45°39' W 122°47'3 5.7
2017-Oct-13 11:56N 45°35' W 122°46'2 4.7
2017-Oct-13 11:30N 45°34' W 122°44'0 0.1
2017-Oct-13 10:59N 45°34' W 122°44'0 0.0
2017-Oct-13 10:29N 45°34' W 122°44'0 0.0
2017-Oct-13 09:59N 45°34' W 122°44'0 0.0
2017-Oct-13 09:17N 45°34' W 122°44'0 0.0
2017-Oct-13 08:59N 45°34' W 122°44'0 0.0
2017-Oct-13 08:29N 45°34' W 122°44'0 0.0
2017-Oct-13 07:56N 45°34' W 122°44'0 0.0
2017-Oct-13 07:29N 45°34' W 122°44'0 0.0
2017-Oct-13 06:59N 45°34' W 122°44'0 0.0
2017-Oct-13 06:29N 45°34' W 122°44'0 0.0
2017-Oct-13 05:59N 45°34' W 122°44'0 0.1
2017-Oct-13 05:29N 45°34' W 122°44'2 5.1
2017-Oct-13 05:00N 45°36' W 122°46'3 5.9
2017-Oct-13 04:30N 45°38' W 122°49'3 5.6
2017-Oct-13 04:00N 45°40' W 122°52'3 5.3
2017-Oct-13 03:30N 45°43' W 122°52'2 4.9
2017-Oct-13 03:00N 45°45' W 122°50'3 4.4
2017-Oct-13 02:21N 45°47' W 122°48'1 2.8
2017-Oct-13 01:55N 45°48' W 122°50'1 2.1
2017-Oct-13 01:28N 45°48' W 122°51'0 0.1
2017-Oct-13 00:49N 45°48' W 122°51'0 0.0
2017-Oct-13 00:28N 45°48' W 122°51'0 0.0
2017-Oct-12 23:52N 45°48' W 122°51'0 0.0
2017-Oct-12 23:19N 45°48' W 122°51'0 0.0
2017-Oct-12 22:58N 45°48' W 122°51'0 0.0
2017-Oct-12 22:28N 45°48' W 122°51'0 0.0
2017-Oct-12 21:49N 45°48' W 122°51'0 0.0
2017-Oct-12 21:28N 45°48' W 122°51'0 0.1
2017-Oct-12 20:55N 45°48' W 122°51'1 1.6
2017-Oct-12 20:30N 45°48' W 122°50'3 5.4
2017-Oct-12 20:00N 45°50' W 122°48'1 2.1
2017-Oct-12 19:30N 45°49' W 122°48'4 8.0
2017-Oct-12 19:00N 45°46' W 122°46'4 7.8
2017-Oct-12 18:30N 45°42' W 122°46'4 7.1
2017-Oct-12 18:00N 45°39' W 122°44'0 0.5
2017-Oct-12 17:28N 45°39' W 122°44'0 0.0
2017-Oct-12 16:55N 45°39' W 122°44'0 0.0
2017-Oct-12 16:19N 45°39' W 122°44'0 0.0
2017-Oct-12 15:58N 45°39' W 122°44'0 0.0
2017-Oct-12 15:28N 45°39' W 122°44'0 0.0
2017-Oct-12 14:58N 45°39' W 122°44'0 0.0
2017-Oct-12 14:28N 45°39' W 122°44'0 0.0
2017-Oct-12 13:52N 45°39' W 122°44'0 0.0
2017-Oct-12 13:28N 45°39' W 122°44'0 0.0
2017-Oct-12 12:55N 45°39' W 122°44'0 0.1
2017-Oct-12 12:23N 45°39' W 122°44'2 4.5
2017-Oct-12 12:00N 45°40' W 122°46'2 5.0
2017-Oct-12 11:31N 45°42' W 122°46'3 5.1
2017-Oct-12 10:57N 45°45' W 122°46'2 5.0
2017-Oct-12 10:31N 45°47' W 122°47'3 4.8
2017-Oct-12 09:51N 45°50' W 122°47'1 4.2
2017-Oct-12 09:30N 45°52' W 122°47'3 5.4
2017-Oct-12 08:56N 45°49' W 122°50'1 1.6
2017-Oct-12 08:27N 45°48' W 122°50'1 1.0
2017-Oct-12 07:42N 45°48' W 122°50'0 1.0
2017-Oct-12 07:30N 45°48' W 122°51'0 0.1
2017-Oct-12 07:00N 45°48' W 122°51'0 0.2
2017-Oct-12 06:30N 45°48' W 122°51'0 0.0
2017-Oct-12 05:57N 45°48' W 122°51'0 0.0
2017-Oct-12 05:24N 45°48' W 122°51'0 0.0
2017-Oct-12 05:00N 45°48' W 122°51'0 0.0
2017-Oct-12 04:30N 45°48' W 122°51'0 0.0
2017-Oct-12 04:00N 45°48' W 122°51'0 0.0
2017-Oct-12 03:27N 45°48' W 122°51'0 0.0
2017-Oct-12 03:00N 45°48' W 122°51'1 1.1
2017-Oct-12 02:30N 45°48' W 122°50'2 4.5
2017-Oct-12 02:00N 45°50' W 122°49'1 1.7
2017-Oct-12 01:30N 45°50' W 122°48'4 7.9
2017-Oct-12 01:00N 45°46' W 122°46'714.0
2017-Oct-12 00:31N 45°39' W 122°45'1 1.4
2017-Oct-11 23:49N 45°39' W 122°44'0 0.0
2017-Oct-11 23:28N 45°39' W 122°44'0 0.0
2017-Oct-11 22:58N 45°39' W 122°44'0 0.0
2017-Oct-11 22:16N 45°39' W 122°44'0 0.0
2017-Oct-11 21:55N 45°39' W 122°44'0 0.0
2017-Oct-11 21:28N 45°39' W 122°44'0 0.0
2017-Oct-11 20:34N 45°39' W 122°44'0 0.1
2017-Oct-11 20:28N 45°39' W 122°44'0 0.0
2017-Oct-11 19:58N 45°39' W 122°44'0 0.0
2017-Oct-11 19:25N 45°39' W 122°44'0 0.0
2017-Oct-11 18:52N 45°39' W 122°44'0 0.0
2017-Oct-11 18:13N 45°39' W 122°44'0 0.0
2017-Oct-11 17:58N 45°39' W 122°44'0 0.0
2017-Oct-11 17:28N 45°39' W 122°44'0 0.0
2017-Oct-11 16:58N 45°39' W 122°44'13 0.8
2017-Oct-11 00:00N 45°52' W 122°48'1 2.7
2017-Oct-10 23:30N 45°50' W 122°47'4 7.6
2017-Oct-10 23:00N 45°47' W 122°46'4 8.6
2017-Oct-10 22:30N 45°42' W 122°46'4 7.9
2017-Oct-10 22:00N 45°39' W 122°44'4 8.3
2017-Oct-10 21:30N 45°37' W 122°39'4 8.1
2017-Oct-10 21:00N 45°36' W 122°33'4 8.7
2017-Oct-10 20:30N 45°34' W 122°27'1 1.4
2017-Oct-10 20:00N 45°34' W 122°27'0 0.0
2017-Oct-10 19:28N 45°34' W 122°27'0 0.0
2017-Oct-10 19:01N 45°34' W 122°27'0 0.0
2017-Oct-10 18:30N 45°34' W 122°27'0 0.0
2017-Oct-10 17:57N 45°34' W 122°27'0 0.0
2017-Oct-10 17:30N 45°34' W 122°27'0 0.0
2017-Oct-10 17:00N 45°34' W 122°27'0 0.0
2017-Oct-10 16:30N 45°34' W 122°27'0 0.0
2017-Oct-10 16:00N 45°34' W 122°27'0 0.0
2017-Oct-10 15:30N 45°34' W 122°27'0 0.0
2017-Oct-10 15:00N 45°34' W 122°27'3 2.6
2017-Oct-10 14:00N 45°35' W 122°30'4 7.0
2017-Oct-10 13:25N 45°36' W 122°36'0 0.7
2017-Oct-10 13:01N 45°36' W 122°36'2 4.5
2017-Oct-10 12:30N 45°37' W 122°39'2 4.4
2017-Oct-10 12:00N 45°38' W 122°42'2 4.1
2017-Oct-10 11:30N 45°39' W 122°45'2 4.5
2017-Oct-10 11:00N 45°41' W 122°46'2 4.6
2017-Oct-10 10:30N 45°43' W 122°46'2 4.5
2017-Oct-10 10:00N 45°45' W 122°46'3 4.5
2017-Oct-10 09:18N 45°48' W 122°47'2 4.1
2017-Oct-10 08:52N 45°50' W 122°47'1 4.1
2017-Oct-10 08:30N 45°52' W 122°47'3 5.3
2017-Oct-10 08:00N 45°49' W 122°49'2 3.1
2017-Oct-10 07:25N 45°48' W 122°51'0 0.1
2017-Oct-10 06:58N 45°48' W 122°51'0 0.0
2017-Oct-10 06:27N 45°48' W 122°51'0 0.0
2017-Oct-10 05:54N 45°48' W 122°51'0 0.0
2017-Oct-10 05:30N 45°48' W 122°51'0 0.0
2017-Oct-10 04:57N 45°48' W 122°51'0 0.0
2017-Oct-10 04:27N 45°48' W 122°51'0 0.0
2017-Oct-10 03:51N 45°48' W 122°51'0 0.1
2017-Oct-10 03:27N 45°48' W 122°51'1 2.4
2017-Oct-10 02:56N 45°49' W 122°50'3 7.3
2017-Oct-10 02:30N 45°51' W 122°48'3 5.3
2017-Oct-10 02:00N 45°49' W 122°48'4 6.4
2017-Oct-10 01:20N 45°45' W 122°46'2 6.7
2017-Oct-10 01:00N 45°42' W 122°46'3 6.8
2017-Oct-10 00:30N 45°39' W 122°45'1 2.7
2017-Oct-10 00:01N 45°39' W 122°44'0 0.0
2017-Oct-09 23:30N 45°39' W 122°44'0 0.0
2017-Oct-09 23:01N 45°39' W 122°44'0 0.0
2017-Oct-09 22:30N 45°39' W 122°44'0 0.0
2017-Oct-09 22:00N 45°39' W 122°44'0 0.0
2017-Oct-09 21:25N 45°39' W 122°44'0 0.0
2017-Oct-09 20:52N 45°39' W 122°44'0 0.0
2017-Oct-09 20:27N 45°39' W 122°44'1 2.1
2017-Oct-09 20:00N 45°39' W 122°45'3 5.2
2017-Oct-09 19:30N 45°41' W 122°46'3 5.4
2017-Oct-09 19:00N 45°44' W 122°46'3 5.4
2017-Oct-09 18:31N 45°47' W 122°46'3 5.5
2017-Oct-09 18:00N 45°49' W 122°48'2 4.8
2017-Oct-09 17:30N 45°52' W 122°48'3 6.6
2017-Oct-09 17:01N 45°49' W 122°50'1 1.9
2017-Oct-09 16:30N 45°48' W 122°50'0 0.3
2017-Oct-09 16:00N 45°48' W 122°50'0 0.0
2017-Oct-08 19:14N 45°48' W 122°51'0 0.2
2017-Oct-08 19:00N 45°48' W 122°51'2 3.9
2017-Oct-08 18:30N 45°49' W 122°49'3 5.1
2017-Oct-08 18:00N 45°51' W 122°47'4 8.1
2017-Oct-08 17:30N 45°47' W 122°47'4 8.0
2017-Oct-08 17:00N 45°44' W 122°46'4 7.9
2017-Oct-08 16:30N 45°40' W 122°46'2 3.6
2017-Oct-08 15:58N 45°39' W 122°44'0 0.0
2017-Oct-08 15:28N 45°39' W 122°44'0 0.0
2017-Oct-08 14:58N 45°39' W 122°44'0 0.0
2017-Oct-08 14:28N 45°39' W 122°44'0 0.0
2017-Oct-08 13:55N 45°39' W 122°44'0 0.0
2017-Oct-08 13:19N 45°39' W 122°44'1 2.5
2017-Oct-08 13:01N 45°39' W 122°45'3 5.9
2017-Oct-08 12:30N 45°41' W 122°46'3 6.2
2017-Oct-08 12:00N 45°45' W 122°46'3 5.9
2017-Oct-08 11:31N 45°47' W 122°47'3 5.3
2017-Oct-08 11:00N 45°50' W 122°47'2 4.9
2017-Oct-08 10:31N 45°53' W 122°48'2 4.6
2017-Oct-08 10:01N 45°50' W 122°48'2 3.8
2017-Oct-08 09:27N 45°48' W 122°49'1 2.3
2017-Oct-08 09:00N 45°48' W 122°51'0 0.1
2017-Oct-08 08:19N 45°48' W 122°51'0 0.0
2017-Oct-08 07:58N 45°48' W 122°51'0 0.0
2017-Oct-08 07:28N 45°48' W 122°51'0 0.0
2017-Oct-08 06:55N 45°48' W 122°51'0 0.1
2017-Oct-08 06:28N 45°48' W 122°51'1 3.1
2017-Oct-08 06:00N 45°49' W 122°50'3 5.8
2017-Oct-08 05:30N 45°51' W 122°48'3 6.7
2017-Oct-08 05:00N 45°48' W 122°47'4 7.9
2017-Oct-08 04:30N 45°44' W 122°46'4 7.7
2017-Oct-08 04:00N 45°40' W 122°46'3 4.5
2017-Oct-08 03:27N 45°39' W 122°44'0 0.0
2017-Oct-08 03:00N 45°39' W 122°44'0 0.0
2017-Oct-08 02:29N 45°39' W 122°44'0 0.0
2017-Oct-08 01:56N 45°39' W 122°44'0 0.0
2017-Oct-08 01:29N 45°39' W 122°44'0 0.0
2017-Oct-08 00:50N 45°39' W 122°44'0 0.0
2017-Oct-08 00:29N 45°39' W 122°44'0 0.0
2017-Oct-07 23:59N 45°39' W 122°44'0 0.0
2017-Oct-07 23:29N 45°39' W 122°44'0 0.0
2017-Oct-07 22:47N 45°39' W 122°44'0 0.0
2017-Oct-07 22:29N 45°39' W 122°44'0 0.0
2017-Oct-07 21:59N 45°39' W 122°44'0 0.0
2017-Oct-07 21:29N 45°39' W 122°44'0 0.0
2017-Oct-07 20:56N 45°39' W 122°44'0 0.0
2017-Oct-07 20:26N 45°39' W 122°44'0 0.0
2017-Oct-07 19:59N 45°39' W 122°44'0 0.0
2017-Oct-07 19:29N 45°39' W 122°44'0 0.0
2017-Oct-07 18:59N 45°39' W 122°44'0 0.0
2017-Oct-07 18:29N 45°39' W 122°44'0 0.0
2017-Oct-07 17:56N 45°39' W 122°44'0 0.0
2017-Oct-07 17:29N 45°39' W 122°44'0 0.0
2017-Oct-07 16:56N 45°39' W 122°44'0 0.0
2017-Oct-07 16:26N 45°39' W 122°44'0 0.0
2017-Oct-07 15:59N 45°39' W 122°44'0 0.0
2017-Oct-07 15:26N 45°39' W 122°44'0 0.1
2017-Oct-07 15:00N 45°39' W 122°44'3 5.3
2017-Oct-07 14:30N 45°41' W 122°46'3 6.3
2017-Oct-07 13:59N 45°44' W 122°46'3 6.6
2017-Oct-07 13:30N 45°47' W 122°47'3 6.6
2017-Oct-07 13:00N 45°50' W 122°47'1 1.3
2017-Oct-07 12:31N 45°50' W 122°48'2 4.4
2017-Oct-07 12:00N 45°48' W 122°49'1 2.0
2017-Oct-07 11:30N 45°48' W 122°50'0 0.3
2017-Oct-07 10:57N 45°48' W 122°51'0 0.0
2017-Oct-07 10:24N 45°48' W 122°51'0 0.0
2017-Oct-07 09:57N 45°48' W 122°51'0 0.0
2017-Oct-07 09:27N 45°48' W 122°51'0 0.0
2017-Oct-07 09:00N 45°48' W 122°51'0 0.0
2017-Oct-07 08:00N 45°48' W 122°51'0 0.0
2017-Oct-07 07:27N 45°48' W 122°51'0 0.0
2017-Oct-07 06:39N 45°48' W 122°51'0 0.0
2017-Oct-07 06:27N 45°48' W 122°51'0 0.0
2017-Oct-07 05:57N 45°48' W 122°51'0 0.0
2017-Oct-07 05:27N 45°48' W 122°51'1 2.2
2017-Oct-07 05:00N 45°48' W 122°50'2 3.8
2017-Oct-07 04:30N 45°50' W 122°49'1 1.8
2017-Oct-07 04:00N 45°50' W 122°47'  
Track history (hours):
 
Tides and Currents Weather Stations Pressure Air Temp Water Temp Dewpoint Dewpoint Depression Visibility Wind Speed Wind Dir Waves Ship Positions

Amy B

Owner: WCP, Inc, Wilsonville, OR. More information available from US FCC via Universal Licensing System and Coast Guard Vessel Documentation Center.

Last reported at 2017-Oct-17 04:00 UTC. Time now 2017-Oct-17 04:20 UTC.
Position N 45°48' W 122°51'.

Length 21 m; draft 2.5 m.

Type: Towing. MMSI: 367727410.

Date/timePositionNaut miles runAvg speedWind from/ knotsBaromVisibWave heightAir tempDewpointWater temp
2017-Oct-17 04:00N 45°48' W 122°51'0 0.0
2017-Oct-17 03:12N 45°48' W 122°51'0 0.0
2017-Oct-17 02:56N 45°48' W 122°51'0 0.0
2017-Oct-17 02:30N 45°48' W 122°51'0 0.1
2017-Oct-17 01:57N 45°48' W 122°51'1 2.7
2017-Oct-17 01:30N 45°48' W 122°49'3 5.7
2017-Oct-17 01:00N 45°51' W 122°48'3 5.1
2017-Oct-17 00:30N 45°48' W 122°47'4 7.7
2017-Oct-17 00:00N 45°45' W 122°46'4 7.2
2017-Oct-16 23:30N 45°41' W 122°46'3 6.7
2017-Oct-16 23:00N 45°38' W 122°44'0 0.6
2017-Oct-16 22:30N 45°39' W 122°44'0 0.0
2017-Oct-16 21:57N 45°39' W 122°44'0 0.0
2017-Oct-16 21:27N 45°39' W 122°44'0 0.0
2017-Oct-16 21:00N 45°39' W 122°44'0 0.0
2017-Oct-16 20:30N 45°39' W 122°44'0 0.0
2017-Oct-16 20:00N 45°39' W 122°44'0 0.0
2017-Oct-16 19:27N 45°39' W 122°44'0 0.1
2017-Oct-16 18:57N 45°39' W 122°44'2 4.1
2017-Oct-16 18:30N 45°40' W 122°46'2 4.9
2017-Oct-16 18:00N 45°42' W 122°46'2 4.8
2017-Oct-16 17:30N 45°44' W 122°46'2 4.6
2017-Oct-16 17:00N 45°47' W 122°46'2 4.6
2017-Oct-16 16:30N 45°49' W 122°48'2 4.3
2017-Oct-16 16:01N 45°51' W 122°47'2 3.3
2017-Oct-16 15:31N 45°53' W 122°48'3 5.7
2017-Oct-16 15:00N 45°50' W 122°49'2 3.0
2017-Oct-16 14:30N 45°48' W 122°50'1 0.9
2017-Oct-16 13:27N 45°48' W 122°51'0 0.3
2017-Oct-16 12:58N 45°48' W 122°51'0 0.1
2017-Oct-16 12:30N 45°48' W 122°51'0 0.0
2017-Oct-16 05:22N 45°48' W 122°51'0 0.0
2017-Oct-16 04:53N 45°48' W 122°51'1 2.7
2017-Oct-16 04:30N 45°48' W 122°50'0 0.3
2017-Oct-16 04:00N 45°48' W 122°49'3 5.4
2017-Oct-16 03:31N 45°51' W 122°48'1 1.3
2017-Oct-16 03:00N 45°51' W 122°47'4 8.7
2017-Oct-16 02:30N 45°47' W 122°47'4 8.7
2017-Oct-16 02:00N 45°43' W 122°46'4 7.9
2017-Oct-16 01:30N 45°39' W 122°44'4 7.6
2017-Oct-16 01:00N 45°37' W 122°40'3 6.4
2017-Oct-16 00:30N 45°36' W 122°35'5 8.2
2017-Oct-15 23:56N 45°35' W 122°29'2 1.5
2017-Oct-15 22:40N 45°34' W 122°27'0 0.0
2017-Oct-15 22:13N 45°34' W 122°27'0 0.0
2017-Oct-15 21:58N 45°34' W 122°27'0 0.0
2017-Oct-15 20:46N 45°34' W 122°27'0 0.0
2017-Oct-15 20:22N 45°34' W 122°27'0 0.0
2017-Oct-15 19:19N 45°34' W 122°27'0 0.0
2017-Oct-15 18:58N 45°34' W 122°27'1 1.3
2017-Oct-15 18:28N 45°34' W 122°27'2 3.9
2017-Oct-15 17:52N 45°35' W 122°30'2 3.9
2017-Oct-15 17:27N 45°36' W 122°33'2 3.9
2017-Oct-15 17:00N 45°36' W 122°35'2 4.2
2017-Oct-15 16:31N 45°36' W 122°38'2 4.2
2017-Oct-15 16:00N 45°37' W 122°41'2 4.6
2017-Oct-15 15:30N 45°39' W 122°43'2 4.5
2017-Oct-15 15:00N 45°40' W 122°46'5 4.3
2017-Oct-15 13:54N 45°45' W 122°46'2 4.5
2017-Oct-15 13:30N 45°46' W 122°46'2 4.4
2017-Oct-15 13:00N 45°48' W 122°48'2 4.2
2017-Oct-15 12:30N 45°50' W 122°47'2 4.1
2017-Oct-15 12:01N 45°52' W 122°48'2 3.8
2017-Oct-15 11:30N 45°51' W 122°48'3 4.9
2017-Oct-15 10:57N 45°48' W 122°50'1 1.8
2017-Oct-15 10:30N 45°48' W 122°51'0 0.1
2017-Oct-15 10:01N 45°48' W 122°51'0 0.1
2017-Oct-15 09:29N 45°48' W 122°51'0 0.0
2017-Oct-15 08:54N 45°48' W 122°51'0 0.0
2017-Oct-15 08:30N 45°48' W 122°51'0 0.0
2017-Oct-15 07:57N 45°48' W 122°51'0 0.0
2017-Oct-15 07:30N 45°48' W 122°51'0 0.0
2017-Oct-15 06:54N 45°48' W 122°51'0 0.1
2017-Oct-15 06:30N 45°48' W 122°51'1 1.8
2017-Oct-15 06:00N 45°48' W 122°50'0 0.7
2017-Oct-15 05:29N 45°48' W 122°49'2 3.3
2017-Oct-15 05:00N 45°50' W 122°49'3 5.8
2017-Oct-15 04:30N 45°53' W 122°48'4 8.1
2017-Oct-15 04:00N 45°49' W 122°47'4 8.3
2017-Oct-15 03:30N 45°45' W 122°46'4 8.5
2017-Oct-15 03:00N 45°40' W 122°46'4 8.0
2017-Oct-15 02:30N 45°38' W 122°42'4 8.3
2017-Oct-15 02:00N 45°36' W 122°36'4 8.6
2017-Oct-15 01:30N 45°35' W 122°30'3 4.6
2017-Oct-15 00:52N 45°34' W 122°27'0 0.0
2017-Oct-14 23:40N 45°34' W 122°27'0 0.0
2017-Oct-14 23:28N 45°34' W 122°27'0 0.0
2017-Oct-14 22:46N 45°34' W 122°27'0 0.0
2017-Oct-14 22:22N 45°34' W 122°27'0 0.0
2017-Oct-14 21:01N 45°34' W 122°27'0 0.0
2017-Oct-14 20:49N 45°34' W 122°27'0 0.0
2017-Oct-14 20:01N 45°34' W 122°27'0 0.2
2017-Oct-14 19:58N 45°34' W 122°27'1 1.3
2017-Oct-14 19:29N 45°34' W 122°27'2 4.1
2017-Oct-14 19:00N 45°35' W 122°30'2 4.3
2017-Oct-14 18:30N 45°36' W 122°33'2 3.9
2017-Oct-14 18:00N 45°36' W 122°36'2 4.2
2017-Oct-14 17:30N 45°37' W 122°38'2 4.0
2017-Oct-14 17:00N 45°37' W 122°41'2 3.9
2017-Oct-14 16:30N 45°38' W 122°43'2 4.6
2017-Oct-14 16:00N 45°40' W 122°46'4 7.3
2017-Oct-14 15:30N 45°44' W 122°46'1 1.5
2017-Oct-14 15:01N 45°44' W 122°46'2 4.7
2017-Oct-14 14:30N 45°47' W 122°46'2 4.6
2017-Oct-14 14:00N 45°49' W 122°48'2 4.2
2017-Oct-14 13:31N 45°51' W 122°47'2 3.8
2017-Oct-14 13:00N 45°53' W 122°48'2 4.4
2017-Oct-14 12:30N 45°50' W 122°48'2 4.7
2017-Oct-14 12:00N 45°48' W 122°50'0 1.0
2017-Oct-14 11:30N 45°48' W 122°50'1 1.0
2017-Oct-14 10:59N 45°48' W 122°51'0 0.1
2017-Oct-14 10:28N 45°48' W 122°51'0 0.0
2017-Oct-14 09:52N 45°48' W 122°51'0 0.0
2017-Oct-14 09:25N 45°48' W 122°51'0 0.0
2017-Oct-14 08:55N 45°48' W 122°51'0 0.0
2017-Oct-14 08:28N 45°48' W 122°51'0 0.0
2017-Oct-14 07:58N 45°48' W 122°51'0 0.1
2017-Oct-14 07:16N 45°48' W 122°51'0 0.0
2017-Oct-14 07:01N 45°48' W 122°51'2 3.0
2017-Oct-14 06:30N 45°49' W 122°50'3 5.8
2017-Oct-14 06:00N 45°51' W 122°47'3 6.9
2017-Oct-14 05:30N 45°48' W 122°47'4 7.2
2017-Oct-14 05:00N 45°44' W 122°46'4 7.8
2017-Oct-14 04:27N 45°40' W 122°46'2 4.9
2017-Oct-14 03:58N 45°39' W 122°44'0 0.0
2017-Oct-14 03:10N 45°39' W 122°44'0 0.0
2017-Oct-14 02:58N 45°39' W 122°44'0 0.0
2017-Oct-14 02:25N 45°39' W 122°44'0 0.0
2017-Oct-14 01:52N 45°39' W 122°44'0 0.0
2017-Oct-14 01:25N 45°39' W 122°44'0 0.0
2017-Oct-14 00:52N 45°39' W 122°44'0 0.0
2017-Oct-14 00:25N 45°39' W 122°44'0 0.0
2017-Oct-13 23:58N 45°39' W 122°44'0 0.0
2017-Oct-13 23:28N 45°39' W 122°44'1 2.5
2017-Oct-13 23:00N 45°39' W 122°45'3 5.2
2017-Oct-13 22:30N 45°42' W 122°46'3 5.2
2017-Oct-13 22:00N 45°44' W 122°46'4 5.6
2017-Oct-13 21:15N 45°48' W 122°47'1 5.5
2017-Oct-13 21:00N 45°50' W 122°48'2 3.4
2017-Oct-13 20:30N 45°51' W 122°48'3 5.6
2017-Oct-13 20:00N 45°49' W 122°50'1 1.8
2017-Oct-13 19:23N 45°48' W 122°50'0 0.5
2017-Oct-13 18:56N 45°48' W 122°51'0 0.0
2017-Oct-13 18:20N 45°48' W 122°51'0 0.0
2017-Oct-13 17:59N 45°48' W 122°51'0 0.0
2017-Oct-13 17:13N 45°48' W 122°51'0 0.0
2017-Oct-13 16:56N 45°48' W 122°51'0 0.1
2017-Oct-13 16:26N 45°48' W 122°51'0 0.7
2017-Oct-13 16:00N 45°48' W 122°50'1 2.1
2017-Oct-13 15:30N 45°49' W 122°50'2 4.1
2017-Oct-13 15:00N 45°51' W 122°48'2 3.8
2017-Oct-13 14:30N 45°52' W 122°48'3 5.0
2017-Oct-13 13:51N 45°49' W 122°48'3 8.8
2017-Oct-13 13:30N 45°46' W 122°46'6 8.6
2017-Oct-13 12:50N 45°40' W 122°46'2 6.2
2017-Oct-13 12:31N 45°39' W 122°47'3 5.7
2017-Oct-13 11:56N 45°35' W 122°46'2 4.7
2017-Oct-13 11:30N 45°34' W 122°44'0 0.1
2017-Oct-13 10:59N 45°34' W 122°44'0 0.0
2017-Oct-13 10:29N 45°34' W 122°44'0 0.0
2017-Oct-13 09:59N 45°34' W 122°44'0 0.0
2017-Oct-13 09:17N 45°34' W 122°44'0 0.0
2017-Oct-13 08:59N 45°34' W 122°44'0 0.0
2017-Oct-13 08:29N 45°34' W 122°44'0 0.0
2017-Oct-13 07:56N 45°34' W 122°44'0 0.0
2017-Oct-13 07:29N 45°34' W 122°44'0 0.0
2017-Oct-13 06:59N 45°34' W 122°44'0 0.0
2017-Oct-13 06:29N 45°34' W 122°44'0 0.0
2017-Oct-13 05:59N 45°34' W 122°44'0 0.1
2017-Oct-13 05:29N 45°34' W 122°44'2 5.1
2017-Oct-13 05:00N 45°36' W 122°46'3 5.9
2017-Oct-13 04:30N 45°38' W 122°49'3 5.6
2017-Oct-13 04:00N 45°40' W 122°52'3 5.3
2017-Oct-13 03:30N 45°43' W 122°52'2 4.9
2017-Oct-13 03:00N 45°45' W 122°50'3 4.4
2017-Oct-13 02:21N 45°47' W 122°48'1 2.8
2017-Oct-13 01:55N 45°48' W 122°50'1 2.1
2017-Oct-13 01:28N 45°48' W 122°51'0 0.1
2017-Oct-13 00:49N 45°48' W 122°51'0 0.0
2017-Oct-13 00:28N 45°48' W 122°51'0 0.0
2017-Oct-12 23:52N 45°48' W 122°51'0 0.0
2017-Oct-12 23:19N 45°48' W 122°51'0 0.0
2017-Oct-12 22:58N 45°48' W 122°51'0 0.0
2017-Oct-12 22:28N 45°48' W 122°51'0 0.0
2017-Oct-12 21:49N 45°48' W 122°51'0 0.0
2017-Oct-12 21:28N 45°48' W 122°51'0 0.1
2017-Oct-12 20:55N 45°48' W 122°51'1 1.6
2017-Oct-12 20:30N 45°48' W 122°50'3 5.4
2017-Oct-12 20:00N 45°50' W 122°48'1 2.1
2017-Oct-12 19:30N 45°49' W 122°48'4 8.0
2017-Oct-12 19:00N 45°46' W 122°46'4 7.8
2017-Oct-12 18:30N 45°42' W 122°46'4 7.1
2017-Oct-12 18:00N 45°39' W 122°44'0 0.5
2017-Oct-12 17:28N 45°39' W 122°44'0 0.0
2017-Oct-12 16:55N 45°39' W 122°44'0 0.0
2017-Oct-12 16:19N 45°39' W 122°44'0 0.0
2017-Oct-12 15:58N 45°39' W 122°44'0 0.0
2017-Oct-12 15:28N 45°39' W 122°44'0 0.0
2017-Oct-12 14:58N 45°39' W 122°44'0 0.0
2017-Oct-12 14:28N 45°39' W 122°44'0 0.0
2017-Oct-12 13:52N 45°39' W 122°44'0 0.0
2017-Oct-12 13:28N 45°39' W 122°44'0 0.0
2017-Oct-12 12:55N 45°39' W 122°44'0 0.1
2017-Oct-12 12:23N 45°39' W 122°44'2 4.5
2017-Oct-12 12:00N 45°40' W 122°46'2 5.0
2017-Oct-12 11:31N 45°42' W 122°46'3 5.1
2017-Oct-12 10:57N 45°45' W 122°46'2 5.0
2017-Oct-12 10:31N 45°47' W 122°47'3 4.8
2017-Oct-12 09:51N 45°50' W 122°47'1 4.2
2017-Oct-12 09:30N 45°52' W 122°47'3 5.4
2017-Oct-12 08:56N 45°49' W 122°50'1 1.6
2017-Oct-12 08:27N 45°48' W 122°50'1 1.0
2017-Oct-12 07:42N 45°48' W 122°50'0 1.0
2017-Oct-12 07:30N 45°48' W 122°51'0 0.1
2017-Oct-12 07:00N 45°48' W 122°51'0 0.2
2017-Oct-12 06:30N 45°48' W 122°51'0 0.0
2017-Oct-12 05:57N 45°48' W 122°51'0 0.0
2017-Oct-12 05:24N 45°48' W 122°51'0 0.0
2017-Oct-12 05:00N 45°48' W 122°51'0 0.0
2017-Oct-12 04:30N 45°48' W 122°51'0 0.0
2017-Oct-12 04:00N 45°48' W 122°51'0 0.0
2017-Oct-12 03:27N 45°48' W 122°51'0 0.0
2017-Oct-12 03:00N 45°48' W 122°51'1 1.1
2017-Oct-12 02:30N 45°48' W 122°50'2 4.5
2017-Oct-12 02:00N 45°50' W 122°49'1 1.7
2017-Oct-12 01:30N 45°50' W 122°48'4 7.9
2017-Oct-12 01:00N 45°46' W 122°46'714.0
2017-Oct-12 00:31N 45°39' W 122°45'1 1.4
2017-Oct-11 23:49N 45°39' W 122°44'0 0.0
2017-Oct-11 23:28N 45°39' W 122°44'0 0.0
2017-Oct-11 22:58N 45°39' W 122°44'0 0.0
2017-Oct-11 22:16N 45°39' W 122°44'0 0.0
2017-Oct-11 21:55N 45°39' W 122°44'0 0.0
2017-Oct-11 21:28N 45°39' W 122°44'0 0.0
2017-Oct-11 20:34N 45°39' W 122°44'0 0.1
2017-Oct-11 20:28N 45°39' W 122°44'0 0.0
2017-Oct-11 19:58N 45°39' W 122°44'0 0.0
2017-Oct-11 19:25N 45°39' W 122°44'0 0.0
2017-Oct-11 18:52N 45°39' W 122°44'0 0.0
2017-Oct-11 18:13N 45°39' W 122°44'0 0.0
2017-Oct-11 17:58N 45°39' W 122°44'0 0.0
2017-Oct-11 17:28N 45°39' W 122°44'0 0.0
2017-Oct-11 16:58N 45°39' W 122°44'13 0.8
2017-Oct-11 00:00N 45°52' W 122°48'1 2.7
2017-Oct-10 23:30N 45°50' W 122°47'4 7.6
2017-Oct-10 23:00N 45°47' W 122°46'4 8.6
2017-Oct-10 22:30N 45°42' W 122°46'4 7.9
2017-Oct-10 22:00N 45°39' W 122°44'4 8.3
2017-Oct-10 21:30N 45°37' W 122°39'4 8.1
2017-Oct-10 21:00N 45°36' W 122°33'4 8.7
2017-Oct-10 20:30N 45°34' W 122°27'1 1.4
2017-Oct-10 20:00N 45°34' W 122°27'0 0.0
2017-Oct-10 19:28N 45°34' W 122°27'0 0.0
2017-Oct-10 19:01N 45°34' W 122°27'0 0.0
2017-Oct-10 18:30N 45°34' W 122°27'0 0.0
2017-Oct-10 17:57N 45°34' W 122°27'0 0.0
2017-Oct-10 17:30N 45°34' W 122°27'0 0.0
2017-Oct-10 17:00N 45°34' W 122°27'0 0.0
2017-Oct-10 16:30N 45°34' W 122°27'0 0.0
2017-Oct-10 16:00N 45°34' W 122°27'0 0.0
2017-Oct-10 15:30N 45°34' W 122°27'0 0.0
2017-Oct-10 15:00N 45°34' W 122°27'3 2.6
2017-Oct-10 14:00N 45°35' W 122°30'4 7.0
2017-Oct-10 13:25N 45°36' W 122°36'0 0.7
2017-Oct-10 13:01N 45°36' W 122°36'2 4.5
2017-Oct-10 12:30N 45°37' W 122°39'2 4.4
2017-Oct-10 12:00N 45°38' W 122°42'2 4.1
2017-Oct-10 11:30N 45°39' W 122°45'2 4.5
2017-Oct-10 11:00N 45°41' W 122°46'2 4.6
2017-Oct-10 10:30N 45°43' W 122°46'2 4.5
2017-Oct-10 10:00N 45°45' W 122°46'3 4.5
2017-Oct-10 09:18N 45°48' W 122°47'2 4.1
2017-Oct-10 08:52N 45°50' W 122°47'1 4.1
2017-Oct-10 08:30N 45°52' W 122°47'3 5.3
2017-Oct-10 08:00N 45°49' W 122°49'2 3.1
2017-Oct-10 07:25N 45°48' W 122°51'0 0.1
2017-Oct-10 06:58N 45°48' W 122°51'0 0.0
2017-Oct-10 06:27N 45°48' W 122°51'0 0.0
2017-Oct-10 05:54N 45°48' W 122°51'0 0.0
2017-Oct-10 05:30N 45°48' W 122°51'0 0.0
2017-Oct-10 04:57N 45°48' W 122°51'0 0.0
2017-Oct-10 04:27N 45°48' W 122°51'0 0.0
2017-Oct-10 03:51N 45°48' W 122°51'0 0.1
2017-Oct-10 03:27N 45°48' W 122°51'1 2.4
2017-Oct-10 02:56N 45°49' W 122°50'3 7.3
2017-Oct-10 02:30N 45°51' W 122°48'3 5.3
2017-Oct-10 02:00N 45°49' W 122°48'4 6.4
2017-Oct-10 01:20N 45°45' W 122°46'2 6.7
2017-Oct-10 01:00N 45°42' W 122°46'3 6.8
2017-Oct-10 00:30N 45°39' W 122°45'1 2.7
2017-Oct-10 00:01N 45°39' W 122°44'0 0.0
2017-Oct-09 23:30N 45°39' W 122°44'0 0.0
2017-Oct-09 23:01N 45°39' W 122°44'0 0.0
2017-Oct-09 22:30N 45°39' W 122°44'0 0.0
2017-Oct-09 22:00N 45°39' W 122°44'0 0.0
2017-Oct-09 21:25N 45°39' W 122°44'0 0.0
2017-Oct-09 20:52N 45°39' W 122°44'0 0.0
2017-Oct-09 20:27N 45°39' W 122°44'1 2.1
2017-Oct-09 20:00N 45°39' W 122°45'3 5.2
2017-Oct-09 19:30N 45°41' W 122°46'3 5.4
2017-Oct-09 19:00N 45°44' W 122°46'3 5.4
2017-Oct-09 18:31N 45°47' W 122°46'3 5.5
2017-Oct-09 18:00N 45°49' W 122°48'2 4.8
2017-Oct-09 17:30N 45°52' W 122°48'3 6.6
2017-Oct-09 17:01N 45°49' W 122°50'1 1.9
2017-Oct-09 16:30N 45°48' W 122°50'0 0.3
2017-Oct-09 16:00N 45°48' W 122°50'0 0.0
2017-Oct-08 19:14N 45°48' W 122°51'0 0.2
2017-Oct-08 19:00N 45°48' W 122°51'2 3.9
2017-Oct-08 18:30N 45°49' W 122°49'3 5.1
2017-Oct-08 18:00N 45°51' W 122°47'4 8.1
2017-Oct-08 17:30N 45°47' W 122°47'4 8.0
2017-Oct-08 17:00N 45°44' W 122°46'4 7.9
2017-Oct-08 16:30N 45°40' W 122°46'2 3.6
2017-Oct-08 15:58N 45°39' W 122°44'0 0.0
2017-Oct-08 15:28N 45°39' W 122°44'0 0.0
2017-Oct-08 14:58N 45°39' W 122°44'0 0.0
2017-Oct-08 14:28N 45°39' W 122°44'0 0.0
2017-Oct-08 13:55N 45°39' W 122°44'0 0.0
2017-Oct-08 13:19N 45°39' W 122°44'1 2.5
2017-Oct-08 13:01N 45°39' W 122°45'3 5.9
2017-Oct-08 12:30N 45°41' W 122°46'3 6.2
2017-Oct-08 12:00N 45°45' W 122°46'3 5.9
2017-Oct-08 11:31N 45°47' W 122°47'3 5.3
2017-Oct-08 11:00N 45°50' W 122°47'2 4.9
2017-Oct-08 10:31N 45°53' W 122°48'2 4.6
2017-Oct-08 10:01N 45°50' W 122°48'2 3.8
2017-Oct-08 09:27N 45°48' W 122°49'1 2.3
2017-Oct-08 09:00N 45°48' W 122°51'0 0.1
2017-Oct-08 08:19N 45°48' W 122°51'0 0.0
2017-Oct-08 07:58N 45°48' W 122°51'0 0.0
2017-Oct-08 07:28N 45°48' W 122°51'0 0.0
2017-Oct-08 06:55N 45°48' W 122°51'0 0.1
2017-Oct-08 06:28N 45°48' W 122°51'1 3.1
2017-Oct-08 06:00N 45°49' W 122°50'3 5.8
2017-Oct-08 05:30N 45°51' W 122°48'3 6.7
2017-Oct-08 05:00N 45°48' W 122°47'4 7.9
2017-Oct-08 04:30N 45°44' W 122°46'4 7.7
2017-Oct-08 04:00N 45°40' W 122°46'3 4.5
2017-Oct-08 03:27N 45°39' W 122°44'0 0.0
2017-Oct-08 03:00N 45°39' W 122°44'0 0.0
2017-Oct-08 02:29N 45°39' W 122°44'0 0.0
2017-Oct-08 01:56N 45°39' W 122°44'0 0.0
2017-Oct-08 01:29N 45°39' W 122°44'0 0.0
2017-Oct-08 00:50N 45°39' W 122°44'0 0.0
2017-Oct-08 00:29N 45°39' W 122°44'0 0.0
2017-Oct-07 23:59N 45°39' W 122°44'0 0.0
2017-Oct-07 23:29N 45°39' W 122°44'0 0.0
2017-Oct-07 22:47N 45°39' W 122°44'0 0.0
2017-Oct-07 22:29N 45°39' W 122°44'0 0.0
2017-Oct-07 21:59N 45°39' W 122°44'0 0.0
2017-Oct-07 21:29N 45°39' W 122°44'0 0.0
2017-Oct-07 20:56N 45°39' W 122°44'0 0.0
2017-Oct-07 20:26N 45°39' W 122°44'0 0.0
2017-Oct-07 19:59N 45°39' W 122°44'0 0.0
2017-Oct-07 19:29N 45°39' W 122°44'0 0.0
2017-Oct-07 18:59N 45°39' W 122°44'0 0.0
2017-Oct-07 18:29N 45°39' W 122°44'0 0.0
2017-Oct-07 17:56N 45°39' W 122°44'0 0.0
2017-Oct-07 17:29N 45°39' W 122°44'0 0.0
2017-Oct-07 16:56N 45°39' W 122°44'0 0.0
2017-Oct-07 16:26N 45°39' W 122°44'0 0.0
2017-Oct-07 15:59N 45°39' W 122°44'0 0.0
2017-Oct-07 15:26N 45°39' W 122°44'0 0.1
2017-Oct-07 15:00N 45°39' W 122°44'3 5.3
2017-Oct-07 14:30N 45°41' W 122°46'3 6.3
2017-Oct-07 13:59N 45°44' W 122°46'3 6.6
2017-Oct-07 13:30N 45°47' W 122°47'3 6.6
2017-Oct-07 13:00N 45°50' W 122°47'1 1.3
2017-Oct-07 12:31N 45°50' W 122°48'2 4.4
2017-Oct-07 12:00N 45°48' W 122°49'1 2.0
2017-Oct-07 11:30N 45°48' W 122°50'0 0.3
2017-Oct-07 10:57N 45°48' W 122°51'0 0.0
2017-Oct-07 10:24N 45°48' W 122°51'0 0.0
2017-Oct-07 09:57N 45°48' W 122°51'0 0.0
2017-Oct-07 09:27N 45°48' W 122°51'0 0.0
2017-Oct-07 09:00N 45°48' W 122°51'0 0.0
2017-Oct-07 08:00N 45°48' W 122°51'0 0.0
2017-Oct-07 07:27N 45°48' W 122°51'0 0.0
2017-Oct-07 06:39N 45°48' W 122°51'0 0.0
2017-Oct-07 06:27N 45°48' W 122°51'0 0.0
2017-Oct-07 05:57N 45°48' W 122°51'0 0.0
2017-Oct-07 05:27N 45°48' W 122°51'1 2.2
2017-Oct-07 05:00N 45°48' W 122°50'2 3.8
2017-Oct-07 04:30N 45°50' W 122°49'1 1.8
2017-Oct-07 04:00N 45°50' W 122°47'  

Dump ship's entire track history